SWR5ZV EDDM-LEPA
Flight info
| Callsign | SWR5ZV |
|---|---|
| Flight time | N/A |
| Altitude | 37000 |
| Route | TURBU7S/26L TURBU Y107 TOBSO DCT BAKOR DCT SUMIR DCT MISPO DCT PIDAD DCT TALEP DCT RARQU DCT BALEN UT250 RIXOT |
| Aircraft | MD11/H-SDE1E2E3FGHIJ2J3J4J5M1RWXY/LB1D1 |
Departure
| Time | 2026-05-06 18:14 |
|---|---|
| Airport | Munich Airport (EDDM) |
Arrival
| Time | N/A |
|---|---|
| Airport | Palma de Mallorca Airport (LEPA) |
| Time | Latitude | Longitude | Altitude | Speed | Heading |
|---|---|---|---|---|---|
| 2026-05-06 17:18 | 48.35049 | 11.78364 | 1468 ft | 0 kts | 84° |
| 2026-05-06 17:54 | 48.35048 | 11.78357 | 1474 ft | 3 kts | 84° |
| 2026-05-06 17:54 | 48.35045 | 11.78320 | 1470 ft | 2 kts | 83° |
| 2026-05-06 17:54 | 48.35043 | 11.78286 | 1463 ft | 4 kts | 81° |
| 2026-05-06 17:54 | 48.35038 | 11.78247 | 1463 ft | 4 kts | 67° |
| 2026-05-06 17:55 | 48.35028 | 11.78220 | 1466 ft | 4 kts | 24° |
| 2026-05-06 17:55 | 48.35010 | 11.78217 | 1466 ft | 4 kts | 353° |
| 2026-05-06 17:55 | 48.34992 | 11.78220 | 1462 ft | 0 kts | 353° |
| 2026-05-06 18:02 | 48.34993 | 11.78220 | 1474 ft | 0 kts | 353° |
| 2026-05-06 18:02 | 48.35000 | 11.78219 | 1466 ft | 2 kts | 353° |
| 2026-05-06 18:02 | 48.35019 | 11.78215 | 1474 ft | 4 kts | 353° |
| 2026-05-06 18:02 | 48.35050 | 11.78210 | 1464 ft | 5 kts | 353° |
| 2026-05-06 18:03 | 48.35091 | 11.78203 | 1469 ft | 6 kts | 353° |
| 2026-05-06 18:03 | 48.35140 | 11.78195 | 1467 ft | 8 kts | 353° |
| 2026-05-06 18:03 | 48.35191 | 11.78185 | 1474 ft | 8 kts | 353° |
| 2026-05-06 18:03 | 48.35249 | 11.78175 | 1468 ft | 9 kts | 353° |
| 2026-05-06 18:04 | 48.35313 | 11.78163 | 1464 ft | 10 kts | 349° |
| 2026-05-06 18:04 | 48.35353 | 11.78105 | 1464 ft | 7 kts | 286° |
| 2026-05-06 18:04 | 48.35351 | 11.78031 | 1468 ft | 7 kts | 263° |
| 2026-05-06 18:04 | 48.35344 | 11.77945 | 1465 ft | 11 kts | 263° |
| 2026-05-06 18:05 | 48.35321 | 11.77818 | 1464 ft | 12 kts | 233° |
| 2026-05-06 18:05 | 48.35244 | 11.77798 | 1472 ft | 13 kts | 173° |
| 2026-05-06 18:05 | 48.35170 | 11.77811 | 1463 ft | 16 kts | 173° |
| 2026-05-06 18:05 | 48.35106 | 11.77823 | 1464 ft | 17 kts | 174° |
| 2026-05-06 18:06 | 48.34988 | 11.77842 | 1468 ft | 17 kts | 174° |
| 2026-05-06 18:06 | 48.34878 | 11.77861 | 1470 ft | 15 kts | 173° |
| 2026-05-06 18:06 | 48.34782 | 11.77878 | 1466 ft | 9 kts | 173° |
| 2026-05-06 18:06 | 48.34775 | 11.77879 | 1468 ft | 0 kts | 173° |
| 2026-05-06 18:07 | 48.34773 | 11.77880 | 1474 ft | 1 kts | 173° |
| 2026-05-06 18:08 | 48.34741 | 11.77886 | 1470 ft | 8 kts | 173° |
| 2026-05-06 18:08 | 48.34675 | 11.77924 | 1464 ft | 10 kts | 131° |
| 2026-05-06 18:08 | 48.34672 | 11.78039 | 1472 ft | 13 kts | 84° |
| 2026-05-06 18:08 | 48.34685 | 11.78207 | 1467 ft | 19 kts | 83° |
| 2026-05-06 18:09 | 48.34701 | 11.78414 | 1467 ft | 21 kts | 83° |
| 2026-05-06 18:09 | 48.34717 | 11.78628 | 1468 ft | 21 kts | 83° |
| 2026-05-06 18:09 | 48.34734 | 11.78841 | 1468 ft | 20 kts | 83° |
| 2026-05-06 18:09 | 48.34751 | 11.79052 | 1468 ft | 20 kts | 83° |
| 2026-05-06 18:10 | 48.34766 | 11.79263 | 1470 ft | 20 kts | 83° |
| 2026-05-06 18:10 | 48.34782 | 11.79465 | 1467 ft | 16 kts | 83° |
| 2026-05-06 18:10 | 48.34773 | 11.79528 | 1465 ft | 3 kts | 122° |
| 2026-05-06 18:10 | 48.34752 | 11.79551 | 1464 ft | 4 kts | 153° |
| 2026-05-06 18:11 | 48.34720 | 11.79557 | 1467 ft | 6 kts | 176° |
| 2026-05-06 18:11 | 48.34671 | 11.79557 | 1464 ft | 9 kts | 186° |
| 2026-05-06 18:11 | 48.34608 | 11.79499 | 1462 ft | 13 kts | 232° |
| 2026-05-06 18:11 | 48.34547 | 11.79374 | 1463 ft | 17 kts | 233° |
| 2026-05-06 18:12 | 48.34473 | 11.79224 | 1461 ft | 19 kts | 233° |
| 2026-05-06 18:12 | 48.34393 | 11.79084 | 1462 ft | 16 kts | 230° |
| 2026-05-06 18:12 | 48.34364 | 11.78975 | 1462 ft | 0 kts | 263° |
| 2026-05-06 18:13 | 48.34364 | 11.78973 | 1462 ft | 2 kts | 263° |
| 2026-05-06 18:13 | 48.34337 | 11.78612 | 1468 ft | 80 kts | 263° |
| 2026-05-06 18:13 | 48.34241 | 11.77368 | 1482 ft | 154 kts | 263° |
| 2026-05-06 18:14 | 48.34104 | 11.75691 | 2166 ft | 159 kts | 262° |
| 2026-05-06 18:14 | 48.33944 | 11.74091 | 3237 ft | 153 kts | 258° |
| 2026-05-06 18:14 | 48.33464 | 11.72617 | 3818 ft | 173 kts | 237° |
| 2026-05-06 18:14 | 48.32412 | 11.71389 | 4010 ft | 204 kts | 207° |
| 2026-05-06 18:15 | 48.31005 | 11.71003 | 4434 ft | 213 kts | 190° |
| 2026-05-06 18:15 | 48.29502 | 11.70959 | 4873 ft | 220 kts | 180° |
| 2026-05-06 18:15 | 48.28029 | 11.71737 | 5299 ft | 234 kts | 157° |
| 2026-05-06 18:15 | 48.26550 | 11.73075 | 5430 ft | 260 kts | 152° |
| 2026-05-06 18:16 | 48.24975 | 11.74630 | 5652 ft | 279 kts | 151° |
| 2026-05-06 18:16 | 48.23360 | 11.76268 | 6337 ft | 281 kts | 150° |